Time;durP1;ratioP1;P1;durP2;ratioP2;P2;SDS_P1;SDS_P2;PMS_P1;PMS_P2;Temp;Humidity;BMP_temperature;BMP_pressure;BME280_temperature;BME280_humidity;BME280_pressure;Samples;Min_cycle;Max_cycle;Signal;HPM_P1;HPM_P2
2021/12/21 00:00:47;;;;;;;14.48;6.45;;;;;;;-0.91;70.24;93349.50;5028969;28;20029;-41
2021/12/21 00:03:12;;;;;;;16.52;5.85;;;;;;;-0.72;70.12;93370.88;5029308;28;20410;-41
2021/12/21 00:05:38;;;;;;;9.50;5.45;;;;;;;-0.79;69.76;93374.75;5029756;28;20026;-41
2021/12/21 00:08:07;;;;;;;9.45;4.65;;;;;;;-0.80;69.03;93376.72;5029820;28;20086;-41
2021/12/21 00:10:33;;;;;;;8.38;4.40;;;;;;;-0.88;68.32;93377.63;5029830;28;20022;-41
2021/12/21 00:13:07;;;;;;;6.07;3.97;;;;;;;-1.03;69.33;93383.13;5029362;28;20025;-41
2021/12/21 00:19:10;;;;;;;6.82;4.50;;;;;;;-1.15;69.01;93384.19;5029686;28;20026;-41
2021/12/21 00:24:01;;;;;;;8.25;5.25;;;;;;;-1.25;71.05;93396.41;4995874;28;20037;-41
2021/12/21 00:26:27;;;;;;;11.27;5.57;;;;;;;-1.34;70.95;93401.94;5029325;28;20041;-40
2021/12/21 00:31:22;;;;;;;5.05;4.35;;;;;;;-1.20;70.36;93405.81;5051440;27;20049;-41
2021/12/21 00:33:48;;;;;;;5.82;3.92;;;;;;;-1.15;70.69;93416.00;5029015;28;20073;-40
2021/12/21 00:36:20;;;;;;;6.43;4.45;;;;;;;-1.26;70.29;93416.59;5028978;28;20062;-40
2021/12/21 00:38:46;;;;;;;8.40;4.85;;;;;;;-1.12;70.79;93421.19;5028928;28;20463;-42
2021/12/21 00:41:12;;;;;;;10.85;4.68;;;;;;;-1.10;71.25;93416.03;5028425;28;20422;-41
2021/12/21 00:43:38;;;;;;;8.45;4.85;;;;;;;-0.97;70.86;93421.13;5029196;28;20425;-44
2021/12/21 00:46:03;;;;;;;5.60;4.32;;;;;;;-1.04;71.09;93408.00;5028935;28;20028;-42
2021/12/21 00:48:31;;;;;;;6.63;3.90;;;;;;;-1.01;70.67;93410.50;5028172;28;20017;-42
2021/12/21 00:50:58;;;;;;;6.35;4.15;;;;;;;-1.04;70.06;93413.41;5026939;28;20494;-45
2021/12/21 00:53:24;;;;;;;7.72;4.60;;;;;;;-0.95;70.39;93415.97;5026553;28;20028;-44
2021/12/21 00:55:49;;;;;;;10.23;5.22;;;;;;;-0.95;69.77;93424.09;5026472;28;20021;-43
2021/12/21 00:58:15;;;;;;;7.13;4.95;;;;;;;-1.01;69.80;93420.56;5027453;28;20049;-43
2021/12/21 01:00:40;;;;;;;8.43;4.55;;;;;;;-0.93;69.91;93418.94;5027786;28;20425;-44
2021/12/21 01:03:10;;;;;;;7.50;4.90;;;;;;;-0.97;69.75;93416.44;5027363;28;20018;-41
2021/12/21 01:05:56;;;;;;;10.98;5.10;;;;;;;-1.08;70.96;93413.59;5027409;28;20082;-41
2021/12/21 01:08:26;;;;;;;6.93;4.53;;;;;;;-1.06;70.94;93421.28;5027104;28;20100;-42
2021/12/21 01:18:19;;;;;;;9.57;5.55;;;;;;;-1.14;71.68;93420.16;5026593;28;20455;-41
2021/12/21 01:21:06;;;;;;;5.50;4.85;;;;;;;-1.15;71.53;93410.56;5026891;28;20021;-41
2021/12/21 01:26:23;;;;;;;9.60;6.45;;;;;;;-1.37;72.18;93421.88;5026817;28;20048;-41
2021/12/21 01:31:47;;;;;;;24.15;13.25;;;;;;;-1.43;72.68;93425.72;5026383;28;20026;-41
2021/12/21 01:34:27;;;;;;;15.18;9.18;;;;;;;-1.40;72.83;93419.34;5028235;28;20033;-41
2021/12/21 01:37:22;;;;;;;9.40;4.85;;;;;;;-1.30;72.64;93424.16;5028094;28;20060;-43
2021/12/21 01:42:18;;;;;;;13.27;7.77;;;;;;;-1.37;73.31;93421.88;5028243;28;20029;-44
2021/12/21 01:49:53;;;;;;;10.82;6.60;;;;;;;-1.14;72.95;93428.28;5028111;28;20033;-44
2021/12/21 01:52:21;;;;;;;8.07;5.50;;;;;;;-1.14;70.70;93420.91;5028510;28;20018;-43
2021/12/21 01:54:47;;;;;;;8.70;5.13;;;;;;;-1.19;70.86;93423.56;5028439;28;20287;-43
2021/12/21 01:57:13;;;;;;;6.40;4.72;;;;;;;-1.19;70.36;93412.75;5028322;28;20513;-44
2021/12/21 01:59:40;;;;;;;6.32;4.15;;;;;;;-1.37;70.27;93418.41;5026861;28;20395;-44
2021/12/21 02:02:08;;;;;;;7.05;4.90;;;;;;;-1.28;70.06;93429.13;5027524;28;20130;-42
2021/12/21 02:04:37;;;;;;;9.13;4.82;;;;;;;-1.58;71.57;93404.84;5029439;28;20493;-42
2021/12/21 02:07:03;;;;;;;;;;;;;;;-1.41;71.81;93418.63;5031933;28;20486;-42
2021/12/21 02:09:37;;;;;;;8.88;5.72;;;;;;;-1.49;72.38;93425.63;5031690;28;19909;-42
2021/12/21 02:12:07;;;;;;;8.93;4.93;;;;;;;-1.26;72.03;93426.69;5030049;28;20476;-45
2021/12/21 02:14:33;;;;;;;5.07;3.78;;;;;;;-1.40;70.33;93413.94;5031331;28;20104;-41
2021/12/21 02:20:04;;;;;;;5.97;4.47;;;;;;;-1.29;69.94;93405.94;5072252;28;20037;-45
2021/12/21 02:22:32;;;;;;;6.65;5.05;;;;;;;-1.07;70.23;93430.59;5011461;28;20025;-42
2021/12/21 02:25:19;;;;;;;20.85;10.32;;;;;;;-1.16;70.97;93425.31;5011438;28;20033;-43
2021/12/21 02:27:56;;;;;;;13.13;7.15;;;;;;;-1.14;71.15;93441.84;5011240;28;20033;-42
2021/12/21 02:30:23;;;;;;;21.73;13.68;;;;;;;-1.07;71.57;93433.31;5017294;28;20045;-42
2021/12/21 02:32:49;;;;;;;22.10;7.15;;;;;;;-1.01;70.92;93440.28;5030939;28;20430;-43
2021/12/21 02:35:14;;;;;;;10.70;4.95;;;;;;;-1.05;70.38;93439.75;5031089;28;20037;-42
2021/12/21 02:37:40;;;;;;;6.38;4.82;;;;;;;-0.93;70.09;93438.66;5030796;28;20034;-43
2021/12/21 02:40:06;;;;;;;6.63;4.15;;;;;;;-0.96;69.98;93436.16;5030930;28;20049;-42
2021/12/21 02:42:32;;;;;;;4.97;4.25;;;;;;;-0.78;68.74;93435.88;5030533;28;20021;-41
2021/12/21 02:44:57;;;;;;;7.03;4.53;;;;;;;-0.73;68.71;93437.16;5029761;28;20029;-41
2021/12/21 02:47:23;;;;;;;8.18;5.25;;;;;;;-0.65;68.81;93433.53;5028900;28;20029;-41
2021/12/21 02:49:49;;;;;;;7.00;5.15;;;;;;;-0.64;68.38;93432.34;5029304;28;20082;-41
2021/12/21 02:52:14;;;;;;;6.88;4.82;;;;;;;-0.86;69.77;93434.78;5030042;28;20010;-41
2021/12/21 02:54:40;;;;;;;8.00;5.43;;;;;;;-0.97;70.72;93440.06;5029117;28;20044;-41
2021/12/21 02:57:06;;;;;;;9.25;5.28;;;;;;;-0.85;70.22;93442.47;5029664;28;20025;-41
2021/12/21 02:59:31;;;;;;;8.50;5.45;;;;;;;-0.78;70.61;93442.03;5029197;28;20033;-40
2021/12/21 03:01:57;;;;;;;26.25;11.02;;;;;;;-0.93;70.73;93435.19;5030085;28;20029;-40
2021/12/21 03:04:23;;;;;;;9.63;5.38;;;;;;;-1.02;69.50;93433.38;5029063;28;20030;-41
2021/12/21 03:12:09;;;;;;;6.03;4.32;;;;;;;-1.00;69.35;93449.16;5028688;28;20032;-41
2021/12/21 03:14:35;;;;;;;7.65;4.50;;;;;;;-0.89;68.84;93452.03;5028487;28;20064;-41
2021/12/21 03:17:01;;;;;;;6.25;4.40;;;;;;;-0.89;68.87;93452.03;5028748;28;20537;-41
2021/12/21 03:19:27;;;;;;;6.80;4.45;;;;;;;-0.93;68.72;93446.03;5028411;28;20028;-40
2021/12/21 03:21:53;;;;;;;6.00;4.28;;;;;;;-1.01;69.14;93437.59;5029696;28;20107;-41
2021/12/21 03:24:19;;;;;;;8.30;5.03;;;;;;;-1.19;70.27;93447.94;5030494;28;20482;-40
2021/12/21 03:26:45;;;;;;;6.95;4.82;;;;;;;-1.19;70.28;93439.81;5030392;28;20033;-41
2021/12/21 03:29:11;;;;;;;6.53;4.47;;;;;;;-1.18;70.14;93442.06;5030169;28;20467;-41
2021/12/21 03:31:36;;;;;;;6.97;4.95;;;;;;;-1.32;71.34;93439.41;5029657;28;20076;-40
2021/12/21 03:34:02;;;;;;;8.23;4.90;;;;;;;-1.35;71.20;93443.81;5030414;28;20025;-41
2021/12/21 03:36:27;;;;;;;6.70;4.68;;;;;;;-1.32;70.73;93440.13;5030364;28;20056;-41
2021/12/21 03:38:59;;;;;;;5.00;3.83;;;;;;;-1.30;69.81;93445.09;5030044;28;20025;-41
2021/12/21 03:41:26;;;;;;;5.57;4.28;;;;;;;-1.31;70.09;93449.00;5030255;28;20104;-41
2021/12/21 03:43:51;;;;;;;8.07;5.20;;;;;;;-1.34;69.95;93439.13;5029878;28;20040;-41
2021/12/21 03:46:17;;;;;;;8.93;4.63;;;;;;;-1.35;70.29;93449.22;5030245;28;20029;-41
2021/12/21 03:48:48;;;;;;;6.00;4.57;;;;;;;-1.39;70.67;93445.22;5029755;28;20018;-41
2021/12/21 03:51:18;;;;;;;5.63;4.28;;;;;;;-1.38;70.73;93452.84;5030255;28;20029;-41
2021/12/21 03:53:44;;;;;;;5.85;3.58;;;;;;;-1.44;70.43;93445.88;5030087;28;20022;-40
2021/12/21 03:58:35;;;;;;;7.93;5.68;;;;;;;-1.51;70.60;93463.25;5029794;28;20544;-41
2021/12/21 04:01:01;;;;;;;9.00;4.82;;;;;;;-1.54;71.00;93464.22;5029730;28;20558;-40
2021/12/21 04:03:27;;;;;;;7.93;5.03;;;;;;;-1.49;71.32;93465.50;5029488;28;20018;-41
2021/12/21 04:05:52;;;;;;;8.55;4.80;;;;;;;-1.58;70.74;93472.50;5011885;28;20038;-41
2021/12/21 04:08:18;;;;;;;7.20;3.63;;;;;;;-1.54;70.64;93470.34;5009073;28;20025;-40
2021/12/21 04:10:43;;;;;;;6.22;4.13;;;;;;;-1.60;71.22;93483.06;5017546;28;20021;-39
2021/12/21 04:13:10;;;;;;;4.90;3.85;;;;;;;-1.62;70.83;93477.38;5020740;28;20022;-40
2021/12/21 04:15:43;;;;;;;6.95;5.07;;;;;;;-1.68;71.24;93465.72;5020519;28;20094;-40
2021/12/21 04:18:12;;;;;;;5.93;3.92;;;;;;;-1.62;70.97;93485.50;5020288;28;20029;-40
2021/12/21 04:20:41;;;;;;;7.90;4.07;;;;;;;-1.53;71.32;93479.22;5022527;28;20028;-40
2021/12/21 04:23:07;;;;;;;6.85;4.53;;;;;;;-1.57;71.15;93486.81;5018458;28;20017;-40
2021/12/21 04:25:34;;;;;;;4.70;3.65;;;;;;;-1.66;70.77;93479.53;5019130;28;20029;-42
2021/12/21 04:28:00;;;;;;;11.50;6.18;;;;;;;-1.66;71.10;93481.50;5017283;28;20025;-42
2021/12/21 04:30:26;;;;;;;9.70;6.28;;;;;;;-1.73;72.01;93479.16;5019441;28;20025;-42
2021/12/21 04:32:51;;;;;;;6.88;5.18;;;;;;;-1.89;72.16;93471.56;5018400;28;20506;-42
2021/12/21 04:35:19;;;;;;;5.85;4.13;;;;;;;-2.02;72.13;93463.72;5015734;28;20038;-41
2021/12/21 04:38:00;;;;;;;21.40;8.35;;;;;;;-1.84;72.02;93479.75;5009627;28;20029;-42
2021/12/21 04:40:38;;;;;;;8.80;6.25;;;;;;;-1.86;71.97;93482.16;5009773;28;20030;-42
2021/12/21 04:43:04;;;;;;;13.57;7.35;;;;;;;-1.86;72.22;93481.41;5009364;28;20026;-42
2021/12/21 04:45:30;;;;;;;17.75;7.07;;;;;;;-1.86;72.28;93487.59;5009580;28;20438;-42
2021/12/21 04:47:56;;;;;;;22.92;5.63;;;;;;;-1.85;73.00;93494.50;5009099;28;20030;-41
2021/12/21 04:50:21;;;;;;;4.10;3.25;;;;;;;-1.82;72.42;93485.44;5009251;28;20025;-39
2021/12/21 04:52:47;;;;;;;6.03;4.57;;;;;;;-1.86;71.92;93484.88;5014507;28;20064;-39
2021/12/21 04:55:12;;;;;;;5.47;4.32;;;;;;;-1.87;72.56;93499.63;5028868;28;20021;-42
2021/12/21 04:57:40;;;;;;;5.40;3.40;;;;;;;-1.86;72.45;93493.00;5029147;28;20017;-45
2021/12/21 05:00:07;;;;;;;3.67;3.35;;;;;;;-1.82;72.19;93496.25;5028536;28;20025;-44
2021/12/21 05:02:33;;;;;;;4.00;3.22;;;;;;;-1.84;71.68;93495.25;5009201;28;20014;-45
2021/12/21 05:04:58;;;;;;;6.65;4.10;;;;;;;-1.81;72.37;93497.75;5008957;28;20533;-43
2021/12/21 05:07:27;;;;;;;6.82;4.93;;;;;;;-1.82;72.50;93503.66;5008951;28;20021;-43
2021/12/21 05:09:57;;;;;;;5.05;3.65;;;;;;;-1.89;72.26;93493.19;5007822;28;20021;-43
2021/12/21 05:12:23;;;;;;;7.28;5.55;;;;;;;-2.01;72.36;93505.78;5008842;28;20530;-43
2021/12/21 05:14:49;;;;;;;7.40;3.67;;;;;;;-2.17;72.55;93489.28;5009169;28;20030;-44
2021/12/21 05:17:14;;;;;;;4.40;3.50;;;;;;;-2.05;72.55;93497.13;5009157;28;20030;-43
2021/12/21 05:19:40;;;;;;;3.90;3.30;;;;;;;-2.05;72.03;93507.19;5008683;28;20406;-43
2021/12/21 05:22:05;;;;;;;7.45;4.20;;;;;;;-1.98;72.25;93514.94;5026020;28;20086;-44
2021/12/21 05:24:31;;;;;;;7.70;4.47;;;;;;;-1.92;71.99;93521.94;5028303;28;20072;-44
2021/12/21 05:26:56;;;;;;;8.73;4.88;;;;;;;-1.97;72.69;93535.38;5028589;28;20041;-44
2021/12/21 05:29:23;;;;;;;5.30;4.05;;;;;;;-1.97;72.55;93530.69;5028627;28;20033;-40
2021/12/21 05:31:49;;;;;;;5.55;4.53;;;;;;;-1.96;71.84;93529.50;5021268;28;20073;-40
2021/12/21 05:34:14;;;;;;;9.40;4.70;;;;;;;-2.02;72.11;93530.59;5008648;28;20498;-41
2021/12/21 05:36:40;;;;;;;6.93;4.80;;;;;;;-1.98;71.94;93541.97;5008509;28;20026;-42
2021/12/21 05:39:15;;;;;;;7.03;4.00;;;;;;;-2.13;73.05;93543.94;5010885;28;20091;-41
2021/12/21 05:41:50;;;;;;;11.07;6.38;;;;;;;-2.06;72.79;93547.03;5012201;28;20029;-41
2021/12/21 05:44:17;;;;;;;6.85;4.22;;;;;;;-1.98;72.63;93550.09;5012373;28;20065;-41
2021/12/21 05:46:42;;;;;;;8.95;5.93;;;;;;;-2.17;72.74;93554.19;5025032;28;20387;-41
2021/12/21 05:49:08;;;;;;;13.70;8.57;;;;;;;-2.13;73.00;93560.16;5031771;28;20032;-40
2021/12/21 05:51:33;;;;;;;10.95;7.53;;;;;;;-2.11;73.77;93566.59;5031979;28;20508;-43
2021/12/21 05:53:59;;;;;;;8.20;4.65;;;;;;;-2.17;73.31;93563.06;5031637;28;20398;-42
2021/12/21 05:56:24;;;;;;;23.33;13.00;;;;;;;-2.14;73.44;93562.13;5015043;28;20113;-42
2021/12/21 05:58:50;;;;;;;15.95;9.90;;;;;;;-2.21;73.67;93559.78;5012179;28;20033;-42
2021/12/21 06:01:16;;;;;;;8.77;6.05;;;;;;;-2.41;73.89;93541.47;5012020;28;20022;-42
2021/12/21 06:03:41;;;;;;;9.90;5.78;;;;;;;-2.15;73.34;93562.59;5011564;28;20536;-42
2021/12/21 06:06:12;;;;;;;14.63;8.00;;;;;;;-2.18;73.39;93571.63;5011721;28;20041;-42
2021/12/21 06:08:38;;;;;;;36.08;18.45;;;;;;;-2.16;73.83;93578.06;5023700;28;20059;-44
2021/12/21 06:11:06;;;;;;;11.52;8.10;;;;;;;-2.17;73.66;93570.41;5031312;28;20078;-42
2021/12/21 06:27:08;;;;;;;10.20;6.28;;;;;;;-2.38;74.20;93593.84;5030840;28;20457;-42
2021/12/21 06:29:34;;;;;;;10.00;6.68;;;;;;;-2.33;74.18;93604.03;5024543;28;20526;-41
2021/12/21 06:32:00;;;;;;;10.73;6.90;;;;;;;-2.24;73.66;93600.50;5020846;28;20121;-40
2021/12/21 06:34:25;;;;;;;12.57;7.78;;;;;;;-2.33;73.95;93599.38;5020590;28;20026;-40
2021/12/21 06:36:54;;;;;;;13.45;7.82;;;;;;;-2.33;74.26;93593.97;5019702;28;20486;-41
2021/12/21 06:39:19;;;;;;;18.73;10.27;;;;;;;-2.27;73.25;93598.75;5021586;28;20456;-41
2021/12/21 06:41:45;;;;;;;10.65;6.68;;;;;;;-2.25;73.46;93607.16;5020328;28;20033;-41
2021/12/21 06:44:13;;;;;;;14.25;8.23;;;;;;;-2.33;73.11;93609.44;5019955;28;20033;-41
2021/12/21 06:51:53;;;;;;;13.80;8.27;;;;;;;-2.30;73.56;93627.47;5030673;28;20090;-41
2021/12/21 06:54:19;;;;;;;6.75;4.85;;;;;;;-2.31;73.25;93625.94;5030686;28;20033;-40
2021/12/21 06:56:44;;;;;;;8.48;5.60;;;;;;;-2.42;72.75;93612.22;5030769;28;20018;-41
2021/12/21 06:59:10;;;;;;;9.23;5.47;;;;;;;-2.26;73.05;93619.91;5029574;28;20414;-41
2021/12/21 07:01:38;;;;;;;6.32;5.47;;;;;;;-2.25;73.62;93618.69;5025804;28;20025;-40
2021/12/21 07:04:10;;;;;;;9.43;7.47;;;;;;;-2.16;73.40;93631.41;5030852;28;20429;-39
2021/12/21 07:06:37;;;;;;;8.20;6.22;;;;;;;-2.09;73.06;93626.41;5030627;28;20032;-40
2021/12/21 07:09:11;;;;;;;6.97;5.57;;;;;;;-2.09;72.79;93634.50;5030810;28;20421;-40
2021/12/21 07:11:53;;;;;;;5.05;4.55;;;;;;;-2.08;73.72;93635.25;5030833;28;20017;-40
2021/12/21 07:19:49;;;;;;;7.05;5.43;;;;;;;-1.58;72.14;93645.78;5030276;28;20120;-39
2021/12/21 07:22:15;;;;;;;4.57;4.07;;;;;;;-1.20;71.58;93661.19;5030439;28;20120;-40
2021/12/21 07:24:41;;;;;;;18.50;7.38;;;;;;;-0.78;69.92;93658.88;5030472;28;20021;-40
2021/12/21 07:27:09;;;;;;;5.28;4.20;;;;;;;-0.57;68.48;93659.69;5026356;28;20458;-40
2021/12/21 07:29:35;;;;;;;12.63;7.78;;;;;;;-0.13;67.09;93652.13;5020744;28;20558;-42
2021/12/21 07:32:00;;;;;;;7.18;5.60;;;;;;;-0.13;67.06;93654.09;5021600;28;20109;-41
2021/12/21 07:34:26;;;;;;;15.35;5.65;;;;;;;0.22;66.60;93665.59;5018242;28;20038;-42
2021/12/21 07:36:51;;;;;;;8.65;5.75;;;;;;;0.50;65.11;93669.38;5014680;28;20483;-41
2021/12/21 07:39:18;;;;;;;7.22;4.80;;;;;;;0.78;64.13;93664.19;5011284;28;20511;-40
2021/12/21 07:41:45;;;;;;;6.40;4.78;;;;;;;1.09;62.39;93674.34;5022466;28;20032;-44
2021/12/21 07:44:11;;;;;;;5.03;3.70;;;;;;;1.27;61.61;93666.59;5020865;28;20477;-44
2021/12/21 07:59:42;;;;;;;12.27;6.95;;;;;;;4.84;50.83;93667.88;5134185;27;20625;-44
2021/12/21 08:02:08;;;;;;;5.60;4.22;;;;;;;5.46;49.72;93665.47;5113864;27;20106;-43
2021/12/21 08:04:36;;;;;;;3.78;3.33;;;;;;;6.05;46.42;93666.19;5104223;28;20519;-46
2021/12/21 08:07:09;;;;;;;14.45;5.90;;;;;;;6.43;45.45;93672.47;5106308;28;20051;-42
2021/12/21 08:09:37;;;;;;;5.18;3.95;;;;;;;7.44;43.16;93669.88;5105468;28;20066;-42
2021/12/21 08:14:38;;;;;;;5.10;4.05;;;;;;;7.28;42.83;93671.59;5106116;28;20408;-44
2021/12/21 08:17:04;;;;;;;4.95;3.45;;;;;;;7.25;43.86;93680.16;5106249;28;20039;-44
2021/12/21 08:19:29;;;;;;;4.85;4.00;;;;;;;7.95;41.24;93682.25;5107699;28;20028;-45
2021/12/21 08:21:55;;;;;;;4.65;3.50;;;;;;;7.80;41.31;93684.03;5121641;28;20530;-49
2021/12/21 08:24:20;;;;;;;4.68;2.65;;;;;;;7.79;40.56;93688.06;5125078;28;20028;-44
2021/12/21 08:26:48;;;;;;;5.20;2.83;;;;;;;7.55;40.97;93681.44;5109736;28;20086;-45
2021/12/21 08:29:14;;;;;;;2.58;2.38;;;;;;;8.69;40.38;93691.44;5118816;28;20023;-43
2021/12/21 08:31:39;;;;;;;5.55;3.65;;;;;;;8.80;39.00;93683.69;5125496;27;20106;-44
2021/12/21 08:34:05;;;;;;;4.47;3.92;;;;;;;9.38;37.10;93699.97;5108355;27;20030;-43
2021/12/21 08:36:31;;;;;;;3.55;3.25;;;;;;;8.97;38.80;93688.84;5113419;28;20460;-46
2021/12/21 08:38:57;;;;;;;4.30;3.42;;;;;;;9.61;37.55;93686.44;5105228;28;20599;-46
2021/12/21 08:41:23;;;;;;;4.05;2.78;;;;;;;9.67;36.28;93707.09;5111364;28;20049;-47
2021/12/21 08:43:50;;;;;;;4.68;3.17;;;;;;;9.04;37.23;93705.47;5123060;27;20107;-45
2021/12/21 08:46:15;;;;;;;3.00;2.63;;;;;;;7.87;39.32;93686.91;5106958;28;20024;-47
2021/12/21 08:48:41;;;;;;;5.80;4.32;;;;;;;7.04;41.19;93710.13;5106844;28;20484;-46
2021/12/21 08:51:07;;;;;;;12.32;6.45;;;;;;;6.32;42.50;93715.75;5106854;28;20483;-45
2021/12/21 08:53:33;;;;;;;13.43;7.55;;;;;;;6.05;44.01;93706.53;5105587;28;20051;-47
2021/12/21 08:55:59;;;;;;;7.10;4.43;;;;;;;6.44;42.90;93711.63;5106535;28;20077;-47
2021/12/21 08:58:25;;;;;;;7.28;3.83;;;;;;;7.15;42.91;93714.72;5112313;28;20063;-47
2021/12/21 09:00:52;;;;;;;2.70;2.50;;;;;;;8.10;39.46;93709.28;5112790;28;20072;-45
2021/12/21 09:03:20;;;;;;;3.53;3.00;;;;;;;7.44;40.36;93709.06;5112837;28;20020;-46
2021/12/21 09:05:45;;;;;;;2.30;2.03;;;;;;;8.27;39.81;93713.22;5112159;28;20020;-43
2021/12/21 09:08:11;;;;;;;3.20;2.90;;;;;;;8.64;39.14;93711.56;5099965;28;20023;-46
2021/12/21 09:10:38;;;;;;;3.17;2.65;;;;;;;8.65;38.57;93710.28;5092684;28;20024;-42
2021/12/21 09:13:05;;;;;;;4.50;2.92;;;;;;;9.21;37.06;93712.63;5092745;28;20122;-42
2021/12/21 09:15:34;;;;;;;2.47;2.13;;;;;;;10.14;35.14;93709.75;5092284;28;20032;-43
2021/12/21 09:17:59;;;;;;;3.22;2.90;;;;;;;11.10;34.03;93696.38;5093924;28;20024;-45
2021/12/21 09:20:27;;;;;;;3.13;1.85;;;;;;;10.18;33.33;93712.19;5097436;28;20080;-41
2021/12/21 09:22:54;;;;;;;3.10;2.80;;;;;;;9.18;34.53;93706.22;5091888;28;20016;-44
2021/12/21 09:25:20;;;;;;;5.30;3.67;;;;;;;8.49;37.35;93700.34;5092390;28;20035;-45
2021/12/21 09:27:46;;;;;;;3.90;3.30;;;;;;;7.14;40.02;93697.53;5104347;28;20030;-46
2021/12/21 09:30:15;;;;;;;4.57;3.58;;;;;;;5.93;42.49;93683.97;5111880;28;20033;-47
2021/12/21 09:32:41;;;;;;;6.80;4.20;;;;;;;5.66;42.83;93695.91;5112840;28;20047;-46
2021/12/21 09:35:07;;;;;;;2.53;2.33;;;;;;;4.94;43.75;93699.16;5112234;28;20605;-43
2021/12/21 09:37:33;;;;;;;6.60;4.57;;;;;;;4.70;45.73;93695.56;5112784;28;20062;-43
2021/12/21 09:40:00;;;;;;;2.95;2.65;;;;;;;4.37;46.27;93702.66;5111446;28;20419;-41
2021/12/21 09:42:28;;;;;;;4.70;2.60;;;;;;;3.90;47.41;93701.03;5111247;28;20480;-40
2021/12/21 09:44:54;;;;;;;8.30;4.95;;;;;;;3.77;47.79;93692.59;5100239;28;20027;-46
2021/12/21 09:47:20;;;;;;;5.47;4.18;;;;;;;3.77;48.80;93700.78;5105818;28;20028;-40
2021/12/21 09:49:46;;;;;;;30.20;17.33;;;;;;;3.65;48.52;93711.00;5099351;28;20527;-45
2021/12/21 09:52:18;;;;;;;7.30;4.13;;;;;;;3.28;50.34;93698.84;5088737;28;20673;-42
2021/12/21 09:54:44;;;;;;;3.05;2.67;;;;;;;2.45;51.40;93695.97;5089487;28;20562;-43
2021/12/21 09:57:10;;;;;;;6.47;4.38;;;;;;;2.57;50.59;93709.13;5090027;28;20031;-41
2021/12/21 09:59:36;;;;;;;5.90;4.28;;;;;;;2.42;51.90;93703.13;5090388;28;20108;-42
2021/12/21 10:02:03;;;;;;;5.07;3.78;;;;;;;2.31;52.99;93708.53;5088979;28;20730;-42
2021/12/21 10:04:29;;;;;;;3.65;2.95;;;;;;;2.17;52.64;93709.44;5089003;28;20016;-43
2021/12/21 10:06:57;;;;;;;7.28;3.22;;;;;;;1.98;52.46;93708.34;5088797;28;20059;-43
2021/12/21 10:09:32;;;;;;;4.38;3.58;;;;;;;1.92;52.64;93716.50;5089186;28;20507;-42
2021/12/21 10:11:58;;;;;;;4.50;3.40;;;;;;;2.00;53.22;93724.94;5088406;28;20485;-41
2021/12/21 10:14:25;;;;;;;5.32;3.63;;;;;;;1.79;53.70;93709.97;5087884;28;20020;-42
2021/12/21 10:17:05;;;;;;;4.15;3.00;;;;;;;1.69;53.39;93711.41;5089164;28;20772;-41
2021/12/21 10:19:31;;;;;;;5.32;3.22;;;;;;;1.72;54.70;93666.88;5090372;28;20028;-41
2021/12/21 10:21:56;;;;;;;7.00;4.88;;;;;;;2.17;52.19;93696.56;5090605;28;20028;-41
2021/12/21 10:24:27;;;;;;;5.47;3.40;;;;;;;2.24;54.04;93709.00;5088049;28;20054;-41
2021/12/21 10:27:05;;;;;;;17.75;10.23;;;;;;;2.27;52.71;93700.56;5089877;28;20080;-41
2021/12/21 10:29:40;;;;;;;5.07;3.30;;;;;;;2.41;53.48;93695.44;5089945;28;20032;-41
2021/12/21 10:32:06;;;;;;;5.07;4.03;;;;;;;2.85;52.30;93690.09;5089802;28;20039;-42
2021/12/21 10:34:37;;;;;;;9.30;3.35;;;;;;;2.91;50.56;93690.84;5089764;28;20237;-41
2021/12/21 10:37:06;;;;;;;5.32;4.07;;;;;;;2.76;51.77;93702.00;5088505;28;20074;-42
2021/12/21 10:39:36;;;;;;;5.15;3.13;;;;;;;2.81;52.24;93693.09;5088724;28;20028;-43
2021/12/21 10:42:03;;;;;;;14.18;3.53;;;;;;;2.93;50.41;93694.59;5089660;28;20564;-41
2021/12/21 10:44:29;;;;;;;3.67;2.88;;;;;;;3.42;50.15;93693.13;5089365;28;20035;-42
2021/12/21 10:46:56;;;;;;;6.10;2.92;;;;;;;3.66;48.21;93695.38;5089391;28;20501;-42
2021/12/21 10:49:28;;;;;;;3.00;2.53;;;;;;;3.14;50.36;93695.09;5089610;28;20059;-45
2021/12/21 10:52:07;;;;;;;8.02;4.53;;;;;;;3.25;50.18;93691.66;5089449;28;20038;-47
2021/12/21 10:54:34;;;;;;;4.90;3.53;;;;;;;3.12;48.75;93691.41;5089731;28;20488;-45
2021/12/21 10:57:05;;;;;;;4.95;3.20;;;;;;;2.68;51.13;93690.09;5088955;28;20035;-44
2021/12/21 10:59:33;;;;;;;3.03;2.65;;;;;;;2.77;49.95;93692.56;5089315;28;20044;-46
2021/12/21 11:02:06;;;;;;;2.92;2.42;;;;;;;2.81;50.03;93695.06;5089125;28;20059;-45
2021/12/21 11:04:37;;;;;;;4.15;3.30;;;;;;;3.65;49.90;93702.81;5089509;28;20024;-44
2021/12/21 11:07:26;;;;;;;3.45;3.10;;;;;;;4.64;46.20;93709.25;5089219;28;20036;-46
2021/12/21 11:10:26;;;;;;;;;;;;;;;4.17;45.55;93699.47;5089951;28;20065;-43
2021/12/21 11:13:08;;;;;;;3.35;3.00;;;;;;;3.62;46.80;93703.78;5089159;28;20400;-45
2021/12/21 11:15:37;;;;;;;2.97;2.70;;;;;;;3.35;47.37;93688.19;5089242;28;20484;-39
2021/12/21 11:18:09;;;;;;;4.03;3.42;;;;;;;3.39;48.84;93688.69;5089507;28;20139;-41
2021/12/21 11:20:37;;;;;;;4.65;3.15;;;;;;;3.65;48.23;93693.88;5087825;28;20428;-44
2021/12/21 11:23:04;;;;;;;2.80;2.33;;;;;;;4.53;46.47;93693.63;5085697;28;20043;-46
2021/12/21 11:25:31;;;;;;;3.78;2.85;;;;;;;5.64;43.22;93692.94;5088707;28;20076;-44
2021/12/21 11:27:58;;;;;;;4.38;3.50;;;;;;;6.15;41.80;93688.50;5089047;28;20040;-44
2021/12/21 11:30:26;;;;;;;3.28;2.63;;;;;;;7.21;40.42;93683.19;5087758;28;20527;-45
2021/12/21 11:32:53;;;;;;;3.47;2.67;;;;;;;7.85;37.19;93685.94;5088931;28;20543;-46
2021/12/21 11:37:54;;;;;;;3.40;2.67;;;;;;;8.71;35.15;93689.63;5089004;28;20039;-45
2021/12/21 11:40:23;;;;;;;2.93;2.30;;;;;;;8.31;36.20;93685.41;5087850;28;20420;-46
2021/12/21 11:42:52;;;;;;;5.60;3.00;;;;;;;7.89;37.13;93689.13;5087939;28;20092;-45
2021/12/21 11:45:27;;;;;;;2.75;2.38;;;;;;;7.80;37.21;93686.78;5087637;28;20034;-43
2021/12/21 11:48:10;;;;;;;15.30;2.90;;;;;;;7.74;37.37;93686.88;5088206;28;20024;-44
2021/12/21 11:50:45;;;;;;;5.13;2.28;;;;;;;7.65;38.06;93677.03;5088953;28;20032;-43
2021/12/21 11:53:13;;;;;;;2.38;2.17;;;;;;;7.59;38.12;93678.38;5089111;28;20051;-43
2021/12/21 11:55:44;;;;;;;2.75;2.17;;;;;;;7.41;38.28;93671.66;5088063;28;20063;-43
2021/12/21 11:58:23;;;;;;;4.43;2.53;;;;;;;7.50;38.92;93676.00;5088513;28;20040;-42
2021/12/21 12:00:52;;;;;;;;;;;;;;;6.87;38.65;93691.16;5089430;28;20107;-44
2021/12/21 12:03:21;;;;;;;3.50;3.20;;;;;;;6.77;39.04;93689.28;5086404;28;19946;-42
2021/12/21 12:05:54;;;;;;;3.85;2.92;;;;;;;6.18;39.52;93676.50;5088636;28;20085;-44
2021/12/21 12:08:22;;;;;;;2.72;2.53;;;;;;;5.58;42.30;93691.50;5088427;28;20065;-41
2021/12/21 12:10:53;;;;;;;3.65;2.83;;;;;;;5.08;43.46;93698.09;5087433;28;20115;-43
2021/12/21 12:13:40;;;;;;;3.30;3.00;;;;;;;5.03;45.35;93690.63;5088626;28;20035;-44
2021/12/21 12:16:14;;;;;;;4.68;3.05;;;;;;;4.90;44.79;93695.94;5088691;28;20161;-46
2021/12/21 12:18:44;;;;;;;3.38;2.60;;;;;;;4.29;46.15;93709.13;5088388;28;20073;-43
2021/12/21 12:21:14;;;;;;;5.35;3.63;;;;;;;3.85;47.27;93710.00;5089099;28;20028;-44
2021/12/21 12:23:44;;;;;;;6.55;2.83;;;;;;;3.47;47.96;93700.56;5088743;28;20104;-46
2021/12/21 12:26:20;;;;;;;3.40;2.55;;;;;;;3.45;48.98;93708.53;5088861;28;20032;-45
2021/12/21 12:28:46;;;;;;;3.65;2.88;;;;;;;3.05;50.00;93714.44;5087963;28;20028;-47
2021/12/21 12:31:11;;;;;;;6.45;4.15;;;;;;;2.82;50.55;93707.44;5088458;28;20039;-43
2021/12/21 12:33:38;;;;;;;3.92;3.00;;;;;;;2.85;49.73;93709.19;5087422;28;20693;-45
2021/12/21 12:36:04;;;;;;;4.95;3.58;;;;;;;2.44;49.55;93708.06;5092190;28;20505;-44
2021/12/21 12:38:30;;;;;;;4.40;3.35;;;;;;;2.32;50.28;93684.75;5091155;28;20028;-44
2021/12/21 12:40:58;;;;;;;9.70;4.03;;;;;;;2.44;51.52;93711.56;5081939;28;20039;-42
2021/12/21 12:43:29;;;;;;;4.88;3.65;;;;;;;2.48;51.24;93703.88;5090875;28;20569;-44
2021/12/21 12:46:04;;;;;;;5.75;3.92;;;;;;;2.53;50.54;93719.53;5091895;28;20067;-41
2021/12/21 12:48:47;;;;;;;4.47;2.90;;;;;;;2.54;50.64;93715.53;5088906;28;20451;-42
2021/12/21 12:51:23;;;;;;;5.28;3.13;;;;;;;2.26;50.13;93706.50;5088686;28;20040;-42
2021/12/21 12:53:49;;;;;;;6.05;5.32;;;;;;;2.22;49.63;93717.66;5091823;28;20039;-43
2021/12/21 12:56:18;;;;;;;7.50;3.80;;;;;;;2.14;50.67;93722.06;5088468;28;20524;-42
2021/12/21 12:59:02;;;;;;;4.72;3.25;;;;;;;1.95;50.88;93729.13;5099894;28;20044;-43
2021/12/21 13:01:38;;;;;;;6.85;3.38;;;;;;;1.82;51.21;93723.34;5110584;28;20087;-41
2021/12/21 13:04:10;;;;;;;4.40;3.00;;;;;;;1.85;51.35;93714.22;5110903;28;20031;-42